OMA weather

Public forecast

Using degrees Fahrenheit for public forecast. Weather courtesy of forecast.io.

Current aviation weather report (METAR) for Eppley Airfield

Retrieved 2020/08/14 17:52 UTC (1 hour ago):

KOMA 141752Z 19013KT 10SM SCT030 32/21 A2996 RMK AO2 SLP133 T03170211 10317 20228 53004

Aviation forecast (TAF) for Eppley Airfield

Retrieved 2020/08/14 18:48 UTC (32 minutes ago):

TAF KOMA 141746Z 1418/1518 18013KT P6SM SCT025 FM150000 21010KT P6SM VCTS BKN030CB FM150200 32010KT P6SM -SHRA BKN030 FM150300 35006KT P6SM SCT030 FM150600 VRB04KT P6SM SKC FM151500 07007KT P6SM SKC